Startpagina
METAR-TAF:

METAR-TAF

Vliegvelden :

Manizales, Colombia

breedte: 05-01-48N, lengte: 075-27-50W, hoogte: 2063 m

Actueel weer

Dit bericht is 16 uur en het 28 minuten geleden gemaakt, om 19:00 UTC
Wind 8 kt uit het westnoordwesten
Temperatuur 20°C
Vochtigheid 83%
Druk 1025 hPa
Zicht: 8000 m
Gebroken wolken op 1500 ft
Gebroken wolken op 4000 ft
mist in de omgeving

METAR: SKMZ 061900Z 30008KT 8000 VCFG BKN015 BKN040 20/17 A3028 RMK VCFG/W/N

Tijdstip: 06:28 (11:28 UTC)


TAF: ontbreekt

Waarnemingen en weersverwachtingen van meer dan 4000 vliegvelden (METAR en TAF).

De beschikbare stations zijn de gele en rode punten op de kaart.

Ga met uw muis naar het station om de naam te zien.

Klik dan om waarnemingen en weersverwachtingen te zien.

kaart wijzigen: klik op de groene knoppen met een zwart kruis om in te zoomen, op de groene knop met een streepje om uit te zoomen of op de groene pijlen voor aangrenzende kaarten.


METAR-TAF: